KPGD/PGD METAR and TAF weather

Enter ICAO airport designator
Station Type Date Time Source
KPGD METAR 2021/01/16 02:17 UTC NOAA

KPGD 160217Z AUTO 25010KT 7SM -RA BKN012 OVC018 18/17 A2989 RMK AO2 RAB0156 P0001 T01830167


Station Type Date Time Source
KPGD Decoded METAR 2021/01/16 02:17 UTC NOAA

PUNTA GORDA CHARLOTTE COUNTY, FL, United States (KPGD) 26-55N 82-00W 7M
Jan 15, 2021 - 09:17 PM EST / 2021.01.16 0217 UTC
Wind: from the WSW (250 degrees) at 12 MPH (10 KT):0
Visibility: 7 mile(s):0
Sky conditions: overcast
Weather: light rain
Precipitation last hour: 0.01 inches
Temperature: 64.9 F (18.3 C)
Dew Point: 62.1 F (16.7 C)
Relative Humidity: 90%
Pressure (altimeter): 29.89 in. Hg (1012 hPa)
ob: KPGD 160217Z AUTO 25010KT 7SM -RA BKN012 OVC018 18/17 A2989 RMK AO2 RAB0156 P0001 T01830167
cycle: 2

Station Type Date Time Source
KPGD TAF 2021/01/15 18:51 UTC NOAA

TAF KPGD 151747Z 1518/1618 21010KT P6SM SCT040 SCT100
FM160000 24010KT P6SM VCSH BKN040 OVC100
FM160500 29008KT P6SM SCT040 BKN100
FM161300 30014G20KT P6SM BKN040

Example: see airport list